Time;durP1;ratioP1;P1;durP2;ratioP2;P2;SDS_P1;SDS_P2;PMS_P1;PMS_P2;Temp;Humidity;BMP_temperature;BMP_pressure;BME280_temperature;BME280_humidity;BME280_pressure;Samples;Min_cycle;Max_cycle;Signal;HPM_P1;HPM_P2
2023/11/18 00:00:17;;;;;;;4.60;2.50;;;;;;;3.88;100.00;100505.75;109470;1251;72637;-60
2023/11/18 00:02:45;;;;;;;5.10;2.80;;;;;;;3.89;100.00;100505.80;109444;1250;66934;-59
2023/11/18 00:05:13;;;;;;;4.80;2.70;;;;;;;3.91;100.00;100504.98;109414;1251;72761;-60
2023/11/18 00:07:42;;;;;;;4.10;2.50;;;;;;;3.92;100.00;100500.91;109348;1251;59675;-62
2023/11/18 00:10:10;;;;;;;4.60;3.00;;;;;;;3.91;100.00;100500.54;109423;1251;59399;-60
2023/11/18 00:12:41;;;;;;;4.50;2.90;;;;;;;3.91;100.00;100501.90;109471;1251;73847;-60
2023/11/18 00:15:10;;;;;;;4.50;3.00;;;;;;;3.93;100.00;100498.48;109443;1251;66911;-59
2023/11/18 00:17:38;;;;;;;4.20;2.70;;;;;;;3.92;100.00;100500.21;109289;1251;71138;-62
2023/11/18 00:20:09;;;;;;;5.60;2.90;;;;;;;3.91;100.00;100501.58;109461;1251;59826;-60
2023/11/18 00:22:38;;;;;;;5.30;3.00;;;;;;;3.91;100.00;100506.04;109487;1250;58852;-60
2023/11/18 00:25:09;;;;;;;4.60;2.80;;;;;;;3.91;100.00;100506.56;109345;1251;73017;-61
2023/11/18 00:27:36;;;;;;;3.80;2.60;;;;;;;3.91;100.00;100508.79;109406;1250;65066;-61
2023/11/18 00:30:05;;;;;;;4.80;2.80;;;;;;;3.92;100.00;100511.09;109487;1254;71125;-60
2023/11/18 00:32:32;;;;;;;4.40;2.70;;;;;;;3.89;100.00;100507.52;109400;1251;61079;-60
2023/11/18 00:35:01;;;;;;;4.50;2.60;;;;;;;3.89;100.00;100507.39;109442;1251;58985;-61
2023/11/18 00:37:28;;;;;;;5.10;2.60;;;;;;;3.88;100.00;100508.45;109436;1251;71654;-63
2023/11/18 00:39:56;;;;;;;4.30;2.70;;;;;;;3.88;100.00;100511.90;109517;1251;66929;-60
2023/11/18 00:42:24;;;;;;;4.80;3.10;;;;;;;3.88;100.00;100509.68;109438;1251;71889;-60
2023/11/18 00:44:52;;;;;;;7.40;3.40;;;;;;;3.89;100.00;100504.46;109487;1251;59190;-60
2023/11/18 00:47:22;;;;;;;4.60;3.10;;;;;;;3.89;100.00;100504.25;109470;1250;58847;-61
2023/11/18 00:49:52;;;;;;;4.50;2.60;;;;;;;3.89;100.00;100499.86;109474;1251;73189;-60
2023/11/18 00:52:20;;;;;;;4.50;2.70;;;;;;;3.87;100.00;100501.52;109486;1251;66591;-60
2023/11/18 00:54:47;;;;;;;4.80;3.00;;;;;;;3.87;100.00;100505.13;109514;1251;71149;-60
2023/11/18 00:57:15;;;;;;;5.50;2.70;;;;;;;3.88;100.00;100505.23;109475;1251;61019;-60
2023/11/18 00:59:43;;;;;;;5.10;3.10;;;;;;;3.89;100.00;100504.85;109398;1250;59018;-60
2023/11/18 01:02:11;;;;;;;4.70;3.00;;;;;;;3.89;100.00;100507.73;109334;1251;73942;-60
2023/11/18 01:04:38;;;;;;;5.00;3.10;;;;;;;3.90;100.00;100508.30;109470;1251;64534;-60
2023/11/18 01:07:06;;;;;;;4.90;3.00;;;;;;;3.92;100.00;100507.10;109478;1251;71454;-60
2023/11/18 01:09:38;;;;;;;5.80;4.00;;;;;;;3.94;100.00;100512.14;109443;1251;62447;-61
2023/11/18 01:12:09;;;;;;;5.00;3.00;;;;;;;3.93;100.00;100510.67;109320;1251;60156;-61
2023/11/18 01:14:38;;;;;;;6.10;3.60;;;;;;;3.95;100.00;100505.88;109471;1250;73029;-60
2023/11/18 01:17:07;;;;;;;6.10;3.90;;;;;;;3.96;100.00;100509.75;109339;1250;65691;-60
2023/11/18 01:19:35;;;;;;;6.20;3.60;;;;;;;3.96;100.00;100509.88;109401;1250;71269;-60
2023/11/18 01:22:05;;;;;;;6.60;4.10;;;;;;;3.97;100.00;100510.10;109397;1251;61226;-60
2023/11/18 01:24:33;;;;;;;8.30;4.60;;;;;;;3.98;100.00;100511.80;109318;1251;60328;-60
2023/11/18 01:27:01;;;;;;;7.30;4.60;;;;;;;3.98;100.00;100520.19;109467;1251;72539;-59
2023/11/18 01:29:29;;;;;;;6.10;4.00;;;;;;;3.98;100.00;100517.11;109433;1250;67065;-63
2023/11/18 01:31:56;;;;;;;6.90;4.10;;;;;;;3.98;100.00;100517.09;109348;1251;73169;-60
2023/11/18 01:34:25;;;;;;;6.70;4.70;;;;;;;3.99;100.00;100513.45;109525;1250;59644;-60
2023/11/18 01:36:53;;;;;;;6.30;4.00;;;;;;;3.98;100.00;100512.46;109521;1250;60147;-61
2023/11/18 01:39:21;;;;;;;7.50;4.90;;;;;;;3.97;100.00;100514.08;109493;1250;73838;-60
2023/11/18 01:41:49;;;;;;;8.10;4.90;;;;;;;3.97;100.00;100512.56;109451;1251;66943;-60
2023/11/18 01:44:19;;;;;;;7.70;5.20;;;;;;;3.98;100.00;100512.28;109389;1250;72783;-60
2023/11/18 01:46:47;;;;;;;7.90;4.70;;;;;;;3.97;100.00;100512.02;109549;1250;60890;-60
2023/11/18 01:49:15;;;;;;;8.00;5.30;;;;;;;3.94;100.00;100514.49;109483;1250;60131;-60
2023/11/18 01:51:43;;;;;;;8.60;5.50;;;;;;;3.93;100.00;100511.02;109463;1250;73936;-60
2023/11/18 01:54:14;;;;;;;10.40;6.40;;;;;;;3.93;100.00;100511.83;109496;1250;67033;-60
2023/11/18 01:56:47;;;;;;;11.20;7.60;;;;;;;3.90;100.00;100508.30;109308;1250;72743;-60
2023/11/18 01:59:18;;;;;;;10.50;7.00;;;;;;;3.87;100.00;100510.85;109299;1250;60959;-60
2023/11/18 02:01:52;;;;;;;12.10;8.10;;;;;;;3.84;100.00;100508.88;109431;1251;60555;-60
2023/11/18 02:04:21;;;;;;;11.10;7.50;;;;;;;3.81;100.00;100508.64;109076;1251;73918;-60
2023/11/18 02:06:49;;;;;;;10.70;7.30;;;;;;;3.78;100.00;100510.80;109402;1251;66078;-60
2023/11/18 02:09:18;;;;;;;12.00;8.30;;;;;;;3.76;100.00;100514.77;109332;1253;72704;-63
2023/11/18 02:11:52;;;;;;;12.30;7.80;;;;;;;3.73;100.00;100518.61;109496;1250;59725;-60
2023/11/18 02:14:22;;;;;;;12.90;8.10;;;;;;;3.70;100.00;100515.91;109092;1250;58820;-60
2023/11/18 02:16:49;;;;;;;11.90;7.80;;;;;;;3.63;100.00;100520.08;109319;1250;73952;-62
2023/11/18 02:19:21;;;;;;;12.10;8.20;;;;;;;3.59;100.00;100519.38;109168;1250;65738;-60
2023/11/18 02:21:49;;;;;;;13.20;9.10;;;;;;;3.56;100.00;100517.95;109292;1250;71804;-61
2023/11/18 02:24:33;;;;;;;10.50;7.50;;;;;;;3.56;100.00;100520.73;109479;1250;60892;-59
2023/11/18 02:27:00;;;;;;;10.90;7.80;;;;;;;3.55;100.00;100519.80;109508;1250;59025;-60
2023/11/18 02:29:49;;;;;;;11.90;7.80;;;;;;;3.54;100.00;100521.63;109502;1251;74449;-60
2023/11/18 02:32:56;;;;;;;14.40;8.90;;;;;;;3.53;100.00;100519.79;109464;1251;65928;-60
2023/11/18 02:35:28;;;;;;;11.70;6.50;;;;;;;3.53;100.00;100518.56;109473;1250;71415;-60
2023/11/18 02:37:56;;;;;;;12.00;7.60;;;;;;;3.53;100.00;100510.52;109471;1250;60311;-60
2023/11/18 02:40:30;;;;;;;12.50;8.20;;;;;;;3.51;100.00;100513.38;109363;1250;60017;-60
2023/11/18 02:42:59;;;;;;;11.70;7.90;;;;;;;3.50;100.00;100509.55;109353;1250;73953;-59
2023/11/18 02:45:27;;;;;;;11.60;7.50;;;;;;;3.49;100.00;100504.48;109196;1250;64694;-61
2023/11/18 02:47:57;;;;;;;11.40;7.50;;;;;;;3.49;100.00;100504.33;109503;1250;71322;-60
2023/11/18 02:50:25;;;;;;;12.50;7.40;;;;;;;3.47;100.00;100504.86;109480;1250;60882;-60
2023/11/18 02:52:53;;;;;;;12.10;7.60;;;;;;;3.43;100.00;100505.49;109362;1250;59195;-59
2023/11/18 02:55:22;;;;;;;11.20;7.40;;;;;;;3.40;100.00;100506.47;109436;1250;73691;-60
2023/11/18 02:57:51;;;;;;;13.00;8.40;;;;;;;3.37;100.00;100507.19;109505;1250;66050;-59
2023/11/18 03:00:22;;;;;;;10.40;6.60;;;;;;;3.37;100.00;100514.10;109434;1250;71361;-60
2023/11/18 03:02:51;;;;;;;13.70;7.80;;;;;;;3.37;100.00;100511.65;109470;1251;59342;-60
2023/11/18 03:05:20;;;;;;;12.10;8.20;;;;;;;3.38;100.00;100507.30;109540;1250;58706;-63
2023/11/18 03:07:53;;;;;;;11.70;7.60;;;;;;;3.38;100.00;100507.80;109436;1250;74146;-60
2023/11/18 03:10:21;;;;;;;10.60;7.30;;;;;;;3.38;100.00;100509.73;109517;1250;64533;-60
2023/11/18 03:12:50;;;;;;;10.80;7.10;;;;;;;3.38;100.00;100512.67;109514;1250;73107;-60
2023/11/18 03:15:18;;;;;;;11.80;7.70;;;;;;;3.40;100.00;100515.41;109467;1250;60986;-60
2023/11/18 03:17:48;;;;;;;11.60;7.70;;;;;;;3.41;100.00;100513.96;109489;1250;60144;-60
2023/11/18 03:20:16;;;;;;;11.60;7.30;;;;;;;3.39;100.00;100511.19;109464;1250;72535;-60
2023/11/18 03:22:49;;;;;;;11.40;6.70;;;;;;;3.36;100.00;100505.77;109349;1250;66796;-59
2023/11/18 03:25:17;;;;;;;11.40;6.90;;;;;;;3.35;100.00;100504.63;109277;1250;71266;-59
2023/11/18 03:27:45;;;;;;;11.20;7.20;;;;;;;3.37;100.00;100511.02;109462;1250;59659;-59
2023/11/18 03:30:13;;;;;;;11.40;7.00;;;;;;;3.38;100.00;100509.23;109341;1250;58780;-59
2023/11/18 03:32:40;;;;;;;10.80;7.50;;;;;;;3.36;100.00;100510.55;109500;1250;73891;-63
2023/11/18 03:35:08;;;;;;;9.70;6.80;;;;;;;3.33;100.00;100511.98;109590;1251;66935;-60
2023/11/18 03:37:43;;;;;;;9.60;6.20;;;;;;;3.31;100.00;100514.95;109469;1250;71259;-60
2023/11/18 03:40:12;;;;;;;10.60;6.30;;;;;;;3.29;100.00;100518.02;109282;1253;58953;-60
2023/11/18 03:42:46;;;;;;;9.40;6.40;;;;;;;3.28;100.00;100519.30;109195;1251;58790;-62
2023/11/18 03:45:18;;;;;;;10.20;6.70;;;;;;;3.28;100.00;100517.30;109284;1251;72293;-60
2023/11/18 03:47:47;;;;;;;9.00;6.30;;;;;;;3.27;100.00;100514.39;109377;1251;65870;-59
2023/11/18 03:50:16;;;;;;;9.60;6.40;;;;;;;3.26;100.00;100516.23;109309;1251;70419;-59
2023/11/18 03:52:43;;;;;;;9.80;6.60;;;;;;;3.24;100.00;100521.02;109214;1251;60891;-60
2023/11/18 03:55:11;;;;;;;10.40;6.40;;;;;;;3.24;100.00;100523.14;109382;1251;58361;-59
2023/11/18 03:57:39;;;;;;;9.50;6.10;;;;;;;3.25;100.00;100525.98;109355;1251;72631;-60
2023/11/18 04:00:08;;;;;;;8.50;6.00;;;;;;;3.25;100.00;100526.27;109321;1250;65706;-59
2023/11/18 04:02:39;;;;;;;12.90;5.90;;;;;;;3.25;100.00;100527.64;109409;1253;72713;-60
2023/11/18 04:05:08;;;;;;;9.20;6.50;;;;;;;3.27;100.00;100523.92;109466;1250;60921;-58
2023/11/18 04:07:36;;;;;;;9.30;5.60;;;;;;;3.26;100.00;100522.63;109505;1250;60037;-59
2023/11/18 04:10:09;;;;;;;9.40;6.30;;;;;;;3.23;100.00;100523.01;109560;1250;73838;-60
2023/11/18 04:12:38;;;;;;;7.90;4.90;;;;;;;3.23;100.00;100531.25;109605;1250;66186;-60
2023/11/18 04:15:06;;;;;;;9.50;5.90;;;;;;;3.23;100.00;100535.43;109485;1251;71484;-61
2023/11/18 04:17:34;;;;;;;10.90;6.10;;;;;;;3.22;100.00;100532.19;109558;1250;60935;-59
2023/11/18 04:20:04;;;;;;;10.60;7.20;;;;;;;3.22;100.00;100536.48;109547;1250;58960;-59
2023/11/18 04:22:32;;;;;;;8.80;6.00;;;;;;;3.22;100.00;100532.86;109488;1252;73966;-58
2023/11/18 04:25:00;;;;;;;17.00;9.90;;;;;;;3.22;100.00;100533.06;109484;1250;66832;-58
2023/11/18 04:27:27;;;;;;;10.20;6.40;;;;;;;3.22;100.00;100529.59;109515;1250;71494;-58
2023/11/18 04:29:55;;;;;;;10.30;6.40;;;;;;;3.23;100.00;100528.67;109468;1250;59624;-58
2023/11/18 04:32:23;;;;;;;14.50;6.80;;;;;;;3.24;100.00;100530.20;109449;1251;60087;-60
2023/11/18 04:34:51;;;;;;;10.40;6.90;;;;;;;3.24;100.00;100535.48;109534;1251;72678;-58
2023/11/18 04:37:18;;;;;;;16.80;8.90;;;;;;;3.24;100.00;100538.41;109556;1250;66923;-58
2023/11/18 04:39:46;;;;;;;10.30;7.00;;;;;;;3.24;100.00;100535.51;109519;1251;72361;-59
2023/11/18 04:42:15;;;;;;;9.90;6.50;;;;;;;3.22;100.00;100536.34;109446;1250;60924;-58
2023/11/18 04:44:43;;;;;;;13.20;7.60;;;;;;;3.20;100.00;100532.86;109465;1250;60091;-58
2023/11/18 04:47:11;;;;;;;10.80;6.40;;;;;;;3.19;100.00;100542.08;109510;1250;72616;-59
2023/11/18 04:49:39;;;;;;;9.50;6.30;;;;;;;3.17;100.00;100547.34;109533;1250;66979;-58
2023/11/18 04:52:06;;;;;;;10.40;7.00;;;;;;;3.14;100.00;100556.37;109442;1251;72742;-59
2023/11/18 04:54:34;;;;;;;10.00;6.50;;;;;;;3.11;100.00;100556.10;109528;1251;61106;-59
2023/11/18 04:57:02;;;;;;;11.00;7.10;;;;;;;3.10;100.00;100558.91;109513;1251;59052;-59
2023/11/18 04:59:30;;;;;;;10.50;6.80;;;;;;;3.09;100.00;100561.04;109478;1251;73967;-59
2023/11/18 05:01:58;;;;;;;9.90;6.50;;;;;;;3.08;100.00;100562.32;109493;1251;65472;-58
2023/11/18 05:04:26;;;;;;;12.00;6.90;;;;;;;3.06;100.00;100567.02;109502;1250;72567;-59
2023/11/18 05:06:53;;;;;;;9.00;6.10;;;;;;;3.04;100.00;100567.48;109507;1251;59536;-58
2023/11/18 05:09:21;;;;;;;8.30;5.80;;;;;;;3.03;100.00;100571.89;109523;1250;60056;-59
2023/11/18 05:11:49;;;;;;;9.60;6.60;;;;;;;3.02;100.00;100572.49;109484;1251;72610;-58
2023/11/18 05:14:16;;;;;;;8.50;5.90;;;;;;;3.02;100.00;100574.74;109526;1250;65842;-58
2023/11/18 05:16:44;;;;;;;9.80;6.80;;;;;;;3.02;100.00;100582.31;109512;1250;72715;-58
2023/11/18 05:19:12;;;;;;;13.10;6.50;;;;;;;3.01;100.00;100583.40;109483;1250;60938;-62
2023/11/18 05:21:39;;;;;;;8.90;6.20;;;;;;;3.01;100.00;100588.39;109484;1250;58803;-58
2023/11/18 05:24:08;;;;;;;10.10;7.10;;;;;;;3.00;100.00;100590.69;109486;1250;74080;-58
2023/11/18 05:26:36;;;;;;;10.00;6.30;;;;;;;2.97;100.00;100592.11;109351;1250;67261;-58
2023/11/18 05:29:03;;;;;;;8.30;5.60;;;;;;;2.99;100.00;100588.06;109467;1250;71109;-62
2023/11/18 05:31:33;;;;;;;9.60;6.10;;;;;;;3.01;100.00;100590.45;109474;1250;59281;-58
2023/11/18 05:34:02;;;;;;;10.20;6.10;;;;;;;3.01;100.00;100589.36;109486;1250;60080;-60
2023/11/18 05:36:36;;;;;;;8.80;5.80;;;;;;;3.02;100.00;100597.70;109436;1250;74328;-58
2023/11/18 05:39:05;;;;;;;9.40;6.10;;;;;;;3.04;100.00;100602.56;109465;1250;65599;-58
2023/11/18 05:41:35;;;;;;;8.30;5.60;;;;;;;3.05;100.00;100612.08;109358;1253;72357;-59
2023/11/18 05:44:02;;;;;;;8.50;5.70;;;;;;;3.05;100.00;100612.39;109318;1251;60290;-59
2023/11/18 05:46:32;;;;;;;9.20;6.40;;;;;;;3.06;100.00;100611.99;109387;1253;60636;-60
2023/11/18 05:49:07;;;;;;;10.40;6.60;;;;;;;3.06;100.00;100613.05;109104;1251;223485;-61
2023/11/18 05:51:35;;;;;;;10.00;6.00;;;;;;;3.05;100.00;100610.88;109501;1250;66817;-60
2023/11/18 05:54:03;;;;;;;9.50;6.50;;;;;;;3.04;100.00;100615.79;109429;1251;72986;-60
2023/11/18 05:56:31;;;;;;;9.10;6.30;;;;;;;3.03;100.00;100614.48;109396;1252;59669;-60
2023/11/18 05:59:02;;;;;;;9.30;6.60;;;;;;;3.03;100.00;100615.34;109350;1251;58782;-60
2023/11/18 06:01:30;;;;;;;8.90;6.40;;;;;;;3.02;100.00;100619.20;109448;1251;72715;-60
2023/11/18 06:03:58;;;;;;;10.80;7.00;;;;;;;3.01;100.00;100620.80;109441;1250;66918;-61
2023/11/18 06:06:26;;;;;;;9.20;6.10;;;;;;;3.01;100.00;100617.88;109455;1251;73091;-60
2023/11/18 06:08:54;;;;;;;10.00;6.20;;;;;;;3.01;100.00;100615.14;109356;1250;59618;-61
2023/11/18 06:11:23;;;;;;;9.70;6.10;;;;;;;3.03;100.00;100609.69;109440;1250;58824;-58
2023/11/18 06:13:51;;;;;;;8.20;5.70;;;;;;;3.04;100.00;100601.91;109507;1250;74260;-58
2023/11/18 06:16:20;;;;;;;9.70;6.80;;;;;;;3.03;100.00;100599.17;109404;1251;67392;-59
2023/11/18 06:18:53;;;;;;;9.70;6.50;;;;;;;3.04;100.00;100603.10;109335;1253;72938;-64
2023/11/18 06:21:24;;;;;;;10.20;6.90;;;;;;;3.04;100.00;100608.02;109420;1250;60939;-61
2023/11/18 06:23:54;;;;;;;9.90;6.50;;;;;;;3.04;100.00;100600.64;109336;1250;58836;-60
2023/11/18 06:26:26;;;;;;;10.70;6.80;;;;;;;3.04;100.00;100606.19;109264;1253;72617;-62
2023/11/18 06:28:54;;;;;;;9.90;6.20;;;;;;;3.03;100.00;100605.72;109386;1251;66086;-58
2023/11/18 06:31:23;;;;;;;10.90;7.00;;;;;;;3.01;100.00;100608.93;109401;1250;72751;-59
2023/11/18 06:33:52;;;;;;;10.20;6.80;;;;;;;3.01;100.00;100612.02;109457;1252;59938;-58
2023/11/18 06:36:21;;;;;;;10.20;6.90;;;;;;;3.03;100.00;100612.39;109326;1251;60091;-58
2023/11/18 06:38:50;;;;;;;11.50;6.80;;;;;;;3.04;100.00;100613.58;109394;1251;73803;-58
2023/11/18 06:41:18;;;;;;;12.60;8.00;;;;;;;3.05;100.00;100613.60;109434;1250;67293;-59
2023/11/18 06:46:26;;;;;;;9.50;6.60;;;;;;;3.06;100.00;100605.65;109356;1250;60227;-59
2023/11/18 06:48:54;;;;;;;12.30;6.70;;;;;;;3.06;100.00;100604.76;109351;1250;60109;-58
2023/11/18 06:51:24;;;;;;;11.40;6.40;;;;;;;3.07;100.00;100607.12;109337;1250;73904;-58
2023/11/18 06:53:54;;;;;;;8.90;6.10;;;;;;;3.08;100.00;100603.97;109440;1250;67052;-58
2023/11/18 06:56:25;;;;;;;11.10;7.00;;;;;;;3.10;100.00;100603.94;109488;1250;71439;-58
2023/11/18 06:58:53;;;;;;;12.00;7.50;;;;;;;3.09;100.00;100601.73;109421;1251;60952;-58
2023/11/18 07:01:21;;;;;;;8.70;5.40;;;;;;;3.08;100.00;100610.58;109380;1251;58856;-58
2023/11/18 07:03:52;;;;;;;8.70;5.90;;;;;;;3.10;100.00;100615.60;109399;1251;73970;-58
2023/11/18 07:06:22;;;;;;;10.90;6.90;;;;;;;3.12;100.00;100619.94;109354;1251;67036;-58
2023/11/18 07:08:50;;;;;;;9.80;7.10;;;;;;;3.13;100.00;100619.13;109408;1251;71362;-58
2023/11/18 07:11:18;;;;;;;9.20;6.10;;;;;;;3.15;100.00;100625.48;109324;1253;59251;-59
2023/11/18 07:13:47;;;;;;;11.10;6.20;;;;;;;3.14;100.00;100630.17;109365;1251;59183;-58
2023/11/18 07:16:15;;;;;;;8.10;5.70;;;;;;;3.15;100.00;100633.92;109238;1251;71967;-58
2023/11/18 07:18:43;;;;;;;9.40;6.90;;;;;;;3.17;100.00;100637.90;109389;1251;66100;-58
2023/11/18 07:21:10;;;;;;;10.30;7.00;;;;;;;3.19;100.00;100641.02;109378;1253;73059;-58
2023/11/18 07:23:38;;;;;;;8.90;6.50;;;;;;;3.22;100.00;100638.55;109341;1251;58905;-59
2023/11/18 07:26:06;;;;;;;8.50;5.90;;;;;;;3.24;100.00;100637.20;109336;1251;59041;-58
2023/11/18 07:28:33;;;;;;;8.60;6.10;;;;;;;3.23;100.00;100642.89;109377;1251;72623;-59
2023/11/18 07:31:04;;;;;;;9.60;6.50;;;;;;;3.21;100.00;100647.16;109379;1251;66220;-58
2023/11/18 07:33:32;;;;;;;9.60;6.20;;;;;;;3.20;100.00;100651.89;109407;1251;73062;-58
2023/11/18 07:36:00;;;;;;;8.50;5.50;;;;;;;3.21;100.00;100652.22;109491;1250;60323;-57
2023/11/18 07:38:27;;;;;;;8.10;5.90;;;;;;;3.22;100.00;100653.80;109519;1250;60066;-57
2023/11/18 07:40:56;;;;;;;9.80;6.40;;;;;;;3.23;100.00;100653.08;109515;1250;74095;-58
2023/11/18 07:43:24;;;;;;;9.80;6.20;;;;;;;3.22;100.00;100657.92;109467;1251;67535;-62
2023/11/18 07:45:53;;;;;;;7.70;5.60;;;;;;;3.22;100.00;100661.88;109460;1251;72247;-58
2023/11/18 07:48:20;;;;;;;8.80;6.20;;;;;;;3.25;100.00;100659.44;109493;1250;58090;-58
2023/11/18 07:50:48;;;;;;;9.80;6.40;;;;;;;3.25;100.00;100660.92;109572;1250;58767;-58
2023/11/18 07:53:16;;;;;;;9.20;6.70;;;;;;;3.24;100.00;100664.45;109593;1250;72775;-60
2023/11/18 07:55:44;;;;;;;8.20;6.20;;;;;;;3.24;100.00;100667.70;109514;1251;66312;-58
2023/11/18 07:58:12;;;;;;;8.70;5.90;;;;;;;3.26;100.00;100668.77;109466;1251;72688;-58
2023/11/18 08:00:41;;;;;;;8.80;6.50;;;;;;;3.28;100.00;100673.40;109485;1250;58227;-58
2023/11/18 08:03:11;;;;;;;9.50;6.50;;;;;;;3.29;100.00;100669.52;109514;1250;58814;-58
2023/11/18 08:05:44;;;;;;;8.80;6.30;;;;;;;3.26;100.00;100661.91;109492;1250;74056;-58
2023/11/18 08:08:12;;;;;;;8.90;6.00;;;;;;;3.23;100.00;100654.38;109519;1250;66925;-57
2023/11/18 08:10:40;;;;;;;10.20;6.10;;;;;;;3.27;100.00;100655.65;109497;1250;72758;-58
2023/11/18 08:13:08;;;;;;;9.50;6.50;;;;;;;3.30;100.00;100657.09;109412;1250;58373;-58
2023/11/18 08:15:45;;;;;;;9.40;6.80;;;;;;;3.32;100.00;100651.61;109495;1250;58940;-58
2023/11/18 08:18:12;;;;;;;9.10;6.20;;;;;;;3.33;100.00;100642.76;109383;1250;73866;-58
2023/11/18 08:20:41;;;;;;;10.40;7.10;;;;;;;3.37;100.00;100641.36;109461;1250;66994;-61
2023/11/18 08:23:09;;;;;;;10.10;6.90;;;;;;;3.41;100.00;100634.66;109484;1251;71724;-57
2023/11/18 08:25:37;;;;;;;10.50;7.50;;;;;;;3.43;100.00;100633.48;109502;1250;58677;-57
2023/11/18 08:28:06;;;;;;;11.30;7.40;;;;;;;3.43;100.00;100633.87;109509;1250;60215;-57
2023/11/18 08:30:37;;;;;;;10.30;7.00;;;;;;;3.42;100.00;100640.48;109477;1250;74828;-58
2023/11/18 08:33:08;;;;;;;9.80;6.60;;;;;;;3.42;100.00;100644.74;109372;1250;67538;-58
2023/11/18 08:35:36;;;;;;;;;;;;;;;3.43;100.00;100649.98;109468;1250;71109;-58
2023/11/18 08:38:07;;;;;;;11.00;7.70;;;;;;;3.45;100.00;100655.52;109460;1253;58125;-58
2023/11/18 08:40:36;;;;;;;10.90;7.20;;;;;;;3.44;100.00;100660.77;109454;1250;62618;-57
2023/11/18 08:43:07;;;;;;;10.30;7.20;;;;;;;3.40;100.00;100661.59;109500;1250;71790;-57
2023/11/18 08:45:37;;;;;;;10.40;6.90;;;;;;;3.37;100.00;100663.21;109520;1250;66969;-58
2023/11/18 08:48:08;;;;;;;11.40;7.40;;;;;;;3.35;100.00;100657.02;109427;1250;71454;-58
2023/11/18 08:50:36;;;;;;;10.30;7.10;;;;;;;3.37;100.00;100652.38;109472;1250;58700;-57
2023/11/18 08:53:05;;;;;;;10.50;7.70;;;;;;;3.40;100.00;100642.85;109457;1250;58816;-57
2023/11/18 08:55:39;;;;;;;12.70;7.20;;;;;;;3.41;100.00;100635.87;109493;1250;74022;-60
2023/11/18 08:58:18;;;;;;;9.40;6.50;;;;;;;3.41;100.00;100638.85;109466;1250;66912;-56
2023/11/18 09:01:04;;;;;;;11.40;7.00;;;;;;;3.43;100.00;100652.09;109471;1253;72775;-57
2023/11/18 09:03:35;;;;;;;11.10;7.50;;;;;;;3.44;100.00;100651.27;109440;1250;60070;-57
2023/11/18 09:06:05;;;;;;;9.10;6.90;;;;;;;3.45;100.00;100652.27;109535;1251;59085;-57
2023/11/18 09:08:38;;;;;;;10.00;7.10;;;;;;;3.46;100.00;100657.16;109498;1255;72975;-58
2023/11/18 09:11:07;;;;;;;10.10;6.90;;;;;;;3.46;100.00;100650.63;109477;1252;67138;-59
2023/11/18 09:13:35;;;;;;;10.50;7.40;;;;;;;3.45;100.00;100647.11;109548;1251;71518;-58
2023/11/18 09:16:09;;;;;;;10.90;6.90;;;;;;;3.44;100.00;100647.34;109506;1250;58619;-58
2023/11/18 09:18:39;;;;;;;10.20;6.90;;;;;;;3.41;100.00;100644.19;109489;1250;60403;-61
2023/11/18 09:21:19;;;;;;;12.00;7.70;;;;;;;3.44;100.00;100637.39;109494;1251;73870;-58
2023/11/18 09:23:49;;;;;;;8.10;5.80;;;;;;;3.47;100.00;100640.88;109508;1251;67321;-58
2023/11/18 09:26:17;;;;;;;12.70;6.80;;;;;;;3.48;100.00;100640.86;109496;1250;71492;-58
2023/11/18 09:28:45;;;;;;;10.60;6.20;;;;;;;3.49;100.00;100644.73;109374;1250;61634;-57
2023/11/18 09:31:13;;;;;;;12.00;6.70;;;;;;;3.50;100.00;100647.55;109485;1250;59206;-58
2023/11/18 09:33:46;;;;;;;10.70;6.60;;;;;;;3.50;100.00;100649.04;109458;1250;72638;-59
2023/11/18 09:36:16;;;;;;;10.30;7.10;;;;;;;3.51;100.00;100647.11;109440;1252;66180;-62
2023/11/18 09:38:46;;;;;;;9.90;7.10;;;;;;;3.50;100.00;100649.10;109389;1252;71731;-58
2023/11/18 09:41:15;;;;;;;9.70;6.60;;;;;;;3.50;100.00;100657.54;109381;1254;59666;-57
2023/11/18 09:43:47;;;;;;;8.90;5.80;;;;;;;3.49;100.00;100656.05;109475;1252;60143;-57
2023/11/18 09:46:23;;;;;;;9.30;6.00;;;;;;;3.47;100.00;100653.28;109456;1252;73915;-57
2023/11/18 09:49:14;;;;;;;8.20;5.90;;;;;;;3.46;100.00;100650.65;109446;1253;68896;-58
2023/11/18 09:51:47;;;;;;;12.50;7.10;;;;;;;3.45;100.00;100644.85;109355;1252;72599;-57
2023/11/18 09:54:24;;;;;;;9.40;6.40;;;;;;;3.45;100.00;100646.77;109309;1251;59162;-57
2023/11/18 09:56:57;;;;;;;9.00;6.80;;;;;;;3.44;100.00;100650.27;109513;1250;58854;-57
2023/11/18 09:59:54;;;;;;;8.90;6.10;;;;;;;3.43;100.00;100645.20;109416;1250;72540;-56
2023/11/18 10:02:23;;;;;;;10.20;7.00;;;;;;;3.43;100.00;100642.95;109520;1250;66927;-57
2023/11/18 10:04:57;;;;;;;10.50;7.40;;;;;;;3.44;100.00;100639.48;109493;1250;72893;-58
2023/11/18 10:07:32;;;;;;;10.10;7.00;;;;;;;3.45;100.00;100631.48;109433;1250;59784;-58
2023/11/18 10:10:01;;;;;;;10.30;7.30;;;;;;;3.45;100.00;100624.38;109499;1250;58878;-58
2023/11/18 10:12:29;;;;;;;9.70;6.70;;;;;;;3.46;100.00;100617.81;109522;1250;74403;-57
2023/11/18 10:14:58;;;;;;;10.70;7.30;;;;;;;3.45;100.00;100612.71;109492;1250;65718;-63
2023/11/18 10:17:26;;;;;;;12.80;6.80;;;;;;;3.45;100.00;100607.45;109465;1250;73392;-58
2023/11/18 10:19:55;;;;;;;10.40;6.70;;;;;;;3.41;100.00;100605.30;109476;1256;60988;-58
2023/11/18 10:22:25;;;;;;;9.20;6.00;;;;;;;3.40;100.00;100602.98;109458;1250;58796;-57
2023/11/18 10:24:57;;;;;;;10.30;7.10;;;;;;;3.40;100.00;100606.25;109339;1250;73556;-57
2023/11/18 10:27:28;;;;;;;10.40;7.10;;;;;;;3.41;100.00;100603.61;109362;1250;66972;-58
2023/11/18 10:30:04;;;;;;;11.80;8.00;;;;;;;3.40;100.00;100604.50;109279;1250;72579;-57
2023/11/18 10:32:35;;;;;;;9.80;6.10;;;;;;;3.42;100.00;100605.73;109314;1250;59330;-56
2023/11/18 10:35:07;;;;;;;9.00;5.70;;;;;;;3.44;100.00;100603.02;109437;1250;58673;-58
2023/11/18 10:37:41;;;;;;;9.10;5.60;;;;;;;3.41;100.00;100603.04;109481;1254;73941;-56
2023/11/18 10:40:13;;;;;;;9.40;6.40;;;;;;;3.42;100.00;100596.00;109483;1250;67088;-57
2023/11/18 10:42:44;;;;;;;9.10;5.90;;;;;;;3.42;100.00;100590.11;109292;1250;72755;-59
2023/11/18 10:45:12;;;;;;;9.40;5.90;;;;;;;3.43;100.00;100590.18;109478;1250;61210;-57
2023/11/18 10:47:42;;;;;;;10.50;6.30;;;;;;;3.44;100.00;100591.90;109440;1250;58953;-57
2023/11/18 10:50:10;;;;;;;10.70;6.20;;;;;;;3.44;100.00;100594.58;109344;1250;72661;-56
2023/11/18 10:52:40;;;;;;;10.50;6.90;;;;;;;3.44;100.00;100600.59;109232;1253;65950;-57
2023/11/18 10:55:11;;;;;;;10.40;6.50;;;;;;;3.45;100.00;100599.85;109417;1250;72532;-57
2023/11/18 10:57:41;;;;;;;11.20;6.40;;;;;;;3.47;100.00;100597.91;109323;1251;59683;-58
2023/11/18 11:00:14;;;;;;;9.70;6.10;;;;;;;3.52;100.00;100610.41;109212;1250;58797;-59
2023/11/18 11:02:43;;;;;;;8.20;5.60;;;;;;;3.54;100.00;100605.38;109470;1250;72670;-58
2023/11/18 11:05:15;;;;;;;8.50;5.80;;;;;;;3.55;100.00;100598.65;109477;1250;65156;-57
2023/11/18 11:07:48;;;;;;;8.60;5.60;;;;;;;3.55;100.00;100594.69;109360;1250;72499;-62
2023/11/18 11:10:24;;;;;;;7.90;5.50;;;;;;;3.53;100.00;100587.13;109464;1251;58945;-58
2023/11/18 11:12:52;;;;;;;10.00;6.00;;;;;;;3.49;100.00;100584.74;109471;1251;60228;-57
2023/11/18 11:15:22;;;;;;;8.80;5.50;;;;;;;3.47;100.00;100586.48;109378;1257;74110;-58
2023/11/18 11:18:02;;;;;;;9.30;5.90;;;;;;;3.42;100.00;100591.30;109395;1253;67093;-57
2023/11/18 11:20:32;;;;;;;9.40;6.20;;;;;;;3.37;100.00;100588.64;109228;1251;73217;-59
2023/11/18 11:23:26;;;;;;;7.30;5.10;;;;;;;3.34;100.00;100589.90;109167;1252;60963;-58
2023/11/18 11:25:59;;;;;;;9.30;5.90;;;;;;;3.32;100.00;100588.55;109247;1253;60316;-58
2023/11/18 11:28:33;;;;;;;8.90;5.30;;;;;;;3.28;100.00;100595.05;109383;1251;73891;-56